Aeroporto :
LOGIN :

Iscrizione | Disclaimer

   EN    FR    IT 

 










Sommario :    VFR   VFR Marginale   IFR   IFR Intensivo   IFR Molto Intensivo
Visibilità : 
Base nubi : 
>= 8 km
>= 3000ft
5 / 8 km
1000 / 3000 ft
1500m / 5 km
500 / 1000 ft
800 / 1500m
200 / 500 ft
< 800m
< 200 ft
Simboli :   Temporali  Nebbia  Neve Forte  Precipitazioni Forti  Vento > 20 kt
SIGMETs :   Varie  Temporali  Ghiacco  Turbolenza  Onda orograficha  Ceneri Vulcaniche






- Altitudine del aeroporto : 489 ft
- Codice IATA : GDN


EPGD - Gdansk

ULTIMO METAR :
  • 260400Z 34009KT 9999 OVC006 08/07 Q1031

METARs OBSOLETI :
  • 260330Z 35009KT 9999 OVC007 08/07 Q1031
  • 260300Z 36007KT 330V030 9999 OVC005 08/07 Q1031
  • 260230Z 34009KT 9999 OVC005 08/07 Q1030
  • 260200Z 35009KT 9999 OVC006 08/07 Q1030
  • 260130Z 36009KT 9999 OVC008 08/07 Q1030

TAF TAF EPGD
Valido dal 26 a 00 ore il 27 a 00 ore UTC


252330Z 2600/2624 36007KT 9999 BKN007
TEMPO 2600/2607 2000 BR BKN004
PROB40 2600/2606 0300 FG OVC001
BECMG 2607/2609 9999 BKN011
BECMG 2609/2611 CAVOK
BECMG 2620/2622 3000 BR



MetMap, La meteo Aeronautica in un colpo d'occhio ! - Copyright ORBIFLY Dicembre 2007 - Disclaimer

ORBIFLY MET'MAP TEAM :

Programmazione e sviluppo : Alexandra Zaïnal
Concezione : Baudouin d'Aumeries
Aiuto per la programmazione : Marc-Olivier Méhu
Supporto tecnico e logistico : Manuel Goepfert
Aiuto per la traduzione : Arnaldo La Scala

Contatto : metmap@orbifly.com




FONTI E CREDITI :

   NOAA